sensor_id;sensor_type;location;lat;lon;timestamp;temperature;humidity
76263;DHT22;65080;50.908;6.916;2023-06-10T00:00:50;22.30;53.50
76263;DHT22;65080;50.908;6.916;2023-06-10T00:03:19;22.30;53.70
76263;DHT22;65080;50.908;6.916;2023-06-10T00:06:01;22.30;53.90
76263;DHT22;65080;50.908;6.916;2023-06-10T00:08:29;22.20;54.10
76263;DHT22;65080;50.908;6.916;2023-06-10T00:10:58;22.20;54.10
76263;DHT22;65080;50.908;6.916;2023-06-10T00:13:27;22.20;54.30
76263;DHT22;65080;50.908;6.916;2023-06-10T00:15:55;22.10;54.40
76263;DHT22;65080;50.908;6.916;2023-06-10T00:18:24;22.10;54.60
76263;DHT22;65080;50.908;6.916;2023-06-10T00:20:54;22.00;54.60
76263;DHT22;65080;50.908;6.916;2023-06-10T00:23:24;22.00;54.70
76263;DHT22;65080;50.908;6.916;2023-06-10T00:25:52;22.00;54.90
76263;DHT22;65080;50.908;6.916;2023-06-10T00:28:21;21.90;55.10
76263;DHT22;65080;50.908;6.916;2023-06-10T00:30:49;21.80;55.30
76263;DHT22;65080;50.908;6.916;2023-06-10T00:33:17;21.70;55.50
76263;DHT22;65080;50.908;6.916;2023-06-10T00:35:46;21.70;55.70
76263;DHT22;65080;50.908;6.916;2023-06-10T00:38:15;21.60;55.90
76263;DHT22;65080;50.908;6.916;2023-06-10T00:40:45;21.50;56.00
76263;DHT22;65080;50.908;6.916;2023-06-10T00:43:13;21.50;56.20
76263;DHT22;65080;50.908;6.916;2023-06-10T00:45:41;21.50;56.40
76263;DHT22;65080;50.908;6.916;2023-06-10T00:48:10;21.40;56.40
76263;DHT22;65080;50.908;6.916;2023-06-10T00:50:39;21.30;56.50
76263;DHT22;65080;50.908;6.916;2023-06-10T00:53:08;21.30;56.70
76263;DHT22;65080;50.908;6.916;2023-06-10T00:55:41;21.30;56.90
76263;DHT22;65080;50.908;6.916;2023-06-10T00:58:15;21.30;57.10
76263;DHT22;65080;50.908;6.916;2023-06-10T01:00:43;21.20;57.30
76263;DHT22;65080;50.908;6.916;2023-06-10T01:03:14;21.20;57.40
76263;DHT22;65080;50.908;6.916;2023-06-10T01:05:49;21.20;57.50
76263;DHT22;65080;50.908;6.916;2023-06-10T01:08:28;21.20;57.70
76263;DHT22;65080;50.908;6.916;2023-06-10T01:11:04;21.20;57.80
76263;DHT22;65080;50.908;6.916;2023-06-10T01:13:50;21.10;57.80
76263;DHT22;65080;50.908;6.916;2023-06-10T01:16:35;21.10;57.90
76263;DHT22;65080;50.908;6.916;2023-06-10T01:19:06;21.10;57.80
76263;DHT22;65080;50.908;6.916;2023-06-10T01:21:39;21.00;57.90
76263;DHT22;65080;50.908;6.916;2023-06-10T01:24:08;21.10;58.20
76263;DHT22;65080;50.908;6.916;2023-06-10T01:26:38;21.00;58.10
76263;DHT22;65080;50.908;6.916;2023-06-10T01:29:14;21.00;58.20
76263;DHT22;65080;50.908;6.916;2023-06-10T01:32:01;20.90;58.30
76263;DHT22;65080;50.908;6.916;2023-06-10T01:37:09;20.80;58.60
76263;DHT22;65080;50.908;6.916;2023-06-10T01:39:37;20.80;58.70
76263;DHT22;65080;50.908;6.916;2023-06-10T01:42:08;20.80;58.80
76263;DHT22;65080;50.908;6.916;2023-06-10T01:44:38;20.80;58.80
76263;DHT22;65080;50.908;6.916;2023-06-10T01:47:07;20.80;58.90
76263;DHT22;65080;50.908;6.916;2023-06-10T01:49:35;20.70;58.90
76263;DHT22;65080;50.908;6.916;2023-06-10T01:52:04;20.70;59.10
76263;DHT22;65080;50.908;6.916;2023-06-10T01:54:34;20.70;59.20
76263;DHT22;65080;50.908;6.916;2023-06-10T01:57:02;20.60;59.40
76263;DHT22;65080;50.908;6.916;2023-06-10T01:59:33;20.60;59.50
76263;DHT22;65080;50.908;6.916;2023-06-10T02:02:01;20.60;59.70
76263;DHT22;65080;50.908;6.916;2023-06-10T02:04:29;20.50;59.90
76263;DHT22;65080;50.908;6.916;2023-06-10T02:06:57;20.50;60.00
76263;DHT22;65080;50.908;6.916;2023-06-10T02:09:26;20.40;60.10
76263;DHT22;65080;50.908;6.916;2023-06-10T02:11:56;20.40;60.30
76263;DHT22;65080;50.908;6.916;2023-06-10T02:14:24;20.40;60.50
76263;DHT22;65080;50.908;6.916;2023-06-10T02:16:52;20.30;60.50
76263;DHT22;65080;50.908;6.916;2023-06-10T02:19:23;20.30;60.60
76263;DHT22;65080;50.908;6.916;2023-06-10T02:21:54;20.30;60.60
76263;DHT22;65080;50.908;6.916;2023-06-10T02:24:22;20.30;60.60
76263;DHT22;65080;50.908;6.916;2023-06-10T02:26:50;20.30;60.60
76263;DHT22;65080;50.908;6.916;2023-06-10T02:29:21;20.30;60.70
76263;DHT22;65080;50.908;6.916;2023-06-10T02:31:49;20.20;60.70
76263;DHT22;65080;50.908;6.916;2023-06-10T02:34:19;20.20;60.80
76263;DHT22;65080;50.908;6.916;2023-06-10T02:36:47;20.20;60.90
76263;DHT22;65080;50.908;6.916;2023-06-10T02:39:18;20.10;61.00
76263;DHT22;65080;50.908;6.916;2023-06-10T02:41:46;20.10;61.20
76263;DHT22;65080;50.908;6.916;2023-06-10T02:44:14;20.10;61.40
76263;DHT22;65080;50.908;6.916;2023-06-10T02:46:44;20.00;61.50
76263;DHT22;65080;50.908;6.916;2023-06-10T02:49:12;20.00;61.70
76263;DHT22;65080;50.908;6.916;2023-06-10T02:51:40;20.00;61.80
76263;DHT22;65080;50.908;6.916;2023-06-10T02:54:09;20.00;61.90
76263;DHT22;65080;50.908;6.916;2023-06-10T02:56:37;20.00;62.10
76263;DHT22;65080;50.908;6.916;2023-06-10T02:59:08;19.90;62.30
76263;DHT22;65080;50.908;6.916;2023-06-10T03:01:37;19.80;62.40
76263;DHT22;65080;50.908;6.916;2023-06-10T03:04:07;19.80;62.60
76263;DHT22;65080;50.908;6.916;2023-06-10T03:06:36;19.80;62.70
76263;DHT22;65080;50.908;6.916;2023-06-10T03:09:05;19.80;62.70
76263;DHT22;65080;50.908;6.916;2023-06-10T03:11:34;19.80;62.60
76263;DHT22;65080;50.908;6.916;2023-06-10T03:14:02;19.80;62.70
76263;DHT22;65080;50.908;6.916;2023-06-10T03:16:30;19.70;62.60
76263;DHT22;65080;50.908;6.916;2023-06-10T03:18:59;19.70;62.80
76263;DHT22;65080;50.908;6.916;2023-06-10T03:21:28;19.70;62.90
76263;DHT22;65080;50.908;6.916;2023-06-10T03:23:56;19.60;62.80
76263;DHT22;65080;50.908;6.916;2023-06-10T03:26:26;19.70;63.00
76263;DHT22;65080;50.908;6.916;2023-06-10T03:28:54;19.60;63.00
76263;DHT22;65080;50.908;6.916;2023-06-10T03:31:22;19.60;63.00
76263;DHT22;65080;50.908;6.916;2023-06-10T03:33:52;19.50;63.00
76263;DHT22;65080;50.908;6.916;2023-06-10T03:36:20;19.50;63.30
76263;DHT22;65080;50.908;6.916;2023-06-10T03:38:49;19.50;63.30
76263;DHT22;65080;50.908;6.916;2023-06-10T03:41:18;19.40;63.30
76263;DHT22;65080;50.908;6.916;2023-06-10T03:43:48;19.40;63.40
76263;DHT22;65080;50.908;6.916;2023-06-10T03:46:16;19.40;63.50
76263;DHT22;65080;50.908;6.916;2023-06-10T03:48:46;19.30;63.50
76263;DHT22;65080;50.908;6.916;2023-06-10T03:51:15;19.30;63.80
76263;DHT22;65080;50.908;6.916;2023-06-10T03:53:43;19.30;64.00
76263;DHT22;65080;50.908;6.916;2023-06-10T03:56:13;19.20;64.20
76263;DHT22;65080;50.908;6.916;2023-06-10T03:58:41;19.20;64.40
76263;DHT22;65080;50.908;6.916;2023-06-10T04:01:13;19.20;64.60
76263;DHT22;65080;50.908;6.916;2023-06-10T04:03:42;19.20;64.70
76263;DHT22;65080;50.908;6.916;2023-06-10T04:06:10;19.20;64.90
76263;DHT22;65080;50.908;6.916;2023-06-10T04:08:39;19.20;64.90
76263;DHT22;65080;50.908;6.916;2023-06-10T04:11:07;19.20;65.00
76263;DHT22;65080;50.908;6.916;2023-06-10T04:13:37;19.20;65.20
76263;DHT22;65080;50.908;6.916;2023-06-10T04:16:05;19.20;65.30
76263;DHT22;65080;50.908;6.916;2023-06-10T04:18:33;19.30;65.50
76263;DHT22;65080;50.908;6.916;2023-06-10T04:21:03;19.30;65.50
76263;DHT22;65080;50.908;6.916;2023-06-10T04:23:31;19.30;65.60
76263;DHT22;65080;50.908;6.916;2023-06-10T04:25:59;19.30;65.70
76263;DHT22;65080;50.908;6.916;2023-06-10T04:28:27;19.30;65.80
76263;DHT22;65080;50.908;6.916;2023-06-10T04:30:57;19.30;66.00
76263;DHT22;65080;50.908;6.916;2023-06-10T04:33:25;19.30;66.10
76263;DHT22;65080;50.908;6.916;2023-06-10T04:35:55;19.40;66.30
76263;DHT22;65080;50.908;6.916;2023-06-10T04:38:23;19.40;66.30
76263;DHT22;65080;50.908;6.916;2023-06-10T04:40:51;19.40;66.30
76263;DHT22;65080;50.908;6.916;2023-06-10T04:43:20;19.50;66.40
76263;DHT22;65080;50.908;6.916;2023-06-10T04:45:48;19.50;66.50
76263;DHT22;65080;50.908;6.916;2023-06-10T04:48:18;19.50;66.60
76263;DHT22;65080;50.908;6.916;2023-06-10T04:50:46;19.60;66.70
76263;DHT22;65080;50.908;6.916;2023-06-10T04:53:14;19.60;66.70
76263;DHT22;65080;50.908;6.916;2023-06-10T04:55:43;19.60;66.70
76263;DHT22;65080;50.908;6.916;2023-06-10T04:58:12;19.80;66.90
76263;DHT22;65080;50.908;6.916;2023-06-10T05:00:41;19.80;66.80
76263;DHT22;65080;50.908;6.916;2023-06-10T05:03:10;19.80;66.80
76263;DHT22;65080;50.908;6.916;2023-06-10T05:05:40;19.90;67.00
76263;DHT22;65080;50.908;6.916;2023-06-10T05:08:08;20.00;67.10
76263;DHT22;65080;50.908;6.916;2023-06-10T05:10:37;20.00;67.00
76263;DHT22;65080;50.908;6.916;2023-06-10T05:13:05;20.10;67.20
76263;DHT22;65080;50.908;6.916;2023-06-10T05:15:33;20.20;67.30
76263;DHT22;65080;50.908;6.916;2023-06-10T05:18:01;20.20;67.30
76263;DHT22;65080;50.908;6.916;2023-06-10T05:20:30;20.30;67.40
76263;DHT22;65080;50.908;6.916;2023-06-10T05:23:00;20.40;67.40
76263;DHT22;65080;50.908;6.916;2023-06-10T05:25:30;20.50;67.40
76263;DHT22;65080;50.908;6.916;2023-06-10T05:27:59;20.50;67.10
76263;DHT22;65080;50.908;6.916;2023-06-10T05:30:27;20.60;66.90
76263;DHT22;65080;50.908;6.916;2023-06-10T05:32:55;20.70;66.80
76263;DHT22;65080;50.908;6.916;2023-06-10T05:35:24;20.80;66.70
76263;DHT22;65080;50.908;6.916;2023-06-10T05:37:52;20.90;66.10
76263;DHT22;65080;50.908;6.916;2023-06-10T05:40:22;21.00;65.50
76263;DHT22;65080;50.908;6.916;2023-06-10T05:42:50;21.10;65.40
76263;DHT22;65080;50.908;6.916;2023-06-10T05:45:18;21.20;65.70
76263;DHT22;65080;50.908;6.916;2023-06-10T05:47:47;21.30;63.70
76263;DHT22;65080;50.908;6.916;2023-06-10T05:50:15;21.30;62.20
76263;DHT22;65080;50.908;6.916;2023-06-10T05:52:43;21.40;61.50
76263;DHT22;65080;50.908;6.916;2023-06-10T05:55:11;21.50;60.90
76263;DHT22;65080;50.908;6.916;2023-06-10T05:57:42;21.60;59.80
76263;DHT22;65080;50.908;6.916;2023-06-10T06:00:11;21.70;58.80
76263;DHT22;65080;50.908;6.916;2023-06-10T06:02:40;21.80;58.10
76263;DHT22;65080;50.908;6.916;2023-06-10T06:05:08;21.90;57.50
76263;DHT22;65080;50.908;6.916;2023-06-10T06:07:37;22.10;57.20
76263;DHT22;65080;50.908;6.916;2023-06-10T06:10:06;22.10;56.90
76263;DHT22;65080;50.908;6.916;2023-06-10T06:12:34;22.20;56.60
76263;DHT22;65080;50.908;6.916;2023-06-10T06:15:05;22.40;56.30
76263;DHT22;65080;50.908;6.916;2023-06-10T06:17:35;22.50;55.80
76263;DHT22;65080;50.908;6.916;2023-06-10T06:20:05;22.50;55.40
76263;DHT22;65080;50.908;6.916;2023-06-10T06:22:33;22.60;54.80
76263;DHT22;65080;50.908;6.916;2023-06-10T06:25:02;22.70;54.10
76263;DHT22;65080;50.908;6.916;2023-06-10T06:27:30;22.80;53.40
76263;DHT22;65080;50.908;6.916;2023-06-10T06:29:59;22.80;52.90
76263;DHT22;65080;50.908;6.916;2023-06-10T06:32:29;23.00;52.50
76263;DHT22;65080;50.908;6.916;2023-06-10T06:34:57;23.00;51.90
76263;DHT22;65080;50.908;6.916;2023-06-10T06:37:26;23.10;51.60
76263;DHT22;65080;50.908;6.916;2023-06-10T06:39:54;23.10;51.20
76263;DHT22;65080;50.908;6.916;2023-06-10T06:42:22;23.20;51.00
76263;DHT22;65080;50.908;6.916;2023-06-10T06:44:50;23.30;51.00
76263;DHT22;65080;50.908;6.916;2023-06-10T06:47:19;23.40;50.90
76263;DHT22;65080;50.908;6.916;2023-06-10T06:49:49;23.50;50.70
76263;DHT22;65080;50.908;6.916;2023-06-10T06:52:17;23.60;50.40
76263;DHT22;65080;50.908;6.916;2023-06-10T06:54:45;23.60;50.10
76263;DHT22;65080;50.908;6.916;2023-06-10T06:57:14;23.70;49.80
76263;DHT22;65080;50.908;6.916;2023-06-10T06:59:42;23.80;49.60
76263;DHT22;65080;50.908;6.916;2023-06-10T07:02:10;23.80;49.10
76263;DHT22;65080;50.908;6.916;2023-06-10T07:04:39;23.80;48.80
76263;DHT22;65080;50.908;6.916;2023-06-10T07:07:09;23.90;48.80
76263;DHT22;65080;50.908;6.916;2023-06-10T07:09:37;24.00;48.70
76263;DHT22;65080;50.908;6.916;2023-06-10T07:12:07;24.00;48.50
76263;DHT22;65080;50.908;6.916;2023-06-10T07:14:35;24.10;48.30
76263;DHT22;65080;50.908;6.916;2023-06-10T07:17:03;24.20;48.20
76263;DHT22;65080;50.908;6.916;2023-06-10T07:19:31;24.30;48.30
76263;DHT22;65080;50.908;6.916;2023-06-10T07:22:00;24.30;48.20
76263;DHT22;65080;50.908;6.916;2023-06-10T07:24:29;24.40;48.30
76263;DHT22;65080;50.908;6.916;2023-06-10T07:26:57;24.50;48.20
76263;DHT22;65080;50.908;6.916;2023-06-10T07:29:26;24.50;48.10
76263;DHT22;65080;50.908;6.916;2023-06-10T07:31:54;24.60;48.30
76263;DHT22;65080;50.908;6.916;2023-06-10T07:34:22;24.60;47.90
76263;DHT22;65080;50.908;6.916;2023-06-10T07:36:50;24.70;47.60
76263;DHT22;65080;50.908;6.916;2023-06-10T07:39:19;24.70;47.40
76263;DHT22;65080;50.908;6.916;2023-06-10T07:41:48;24.80;47.40
76263;DHT22;65080;50.908;6.916;2023-06-10T07:44:16;24.80;47.30
76263;DHT22;65080;50.908;6.916;2023-06-10T07:46:45;24.80;47.30
76263;DHT22;65080;50.908;6.916;2023-06-10T07:49:13;24.90;47.30
76263;DHT22;65080;50.908;6.916;2023-06-10T07:51:41;24.90;47.30
76263;DHT22;65080;50.908;6.916;2023-06-10T07:54:09;25.00;47.60
76263;DHT22;65080;50.908;6.916;2023-06-10T07:56:39;25.00;47.50
76263;DHT22;65080;50.908;6.916;2023-06-10T07:59:08;25.10;47.40
76263;DHT22;65080;50.908;6.916;2023-06-10T08:01:36;25.20;47.30
76263;DHT22;65080;50.908;6.916;2023-06-10T08:04:06;25.20;47.10
76263;DHT22;65080;50.908;6.916;2023-06-10T08:06:35;25.20;47.20
76263;DHT22;65080;50.908;6.916;2023-06-10T08:09:03;25.30;47.40
76263;DHT22;65080;50.908;6.916;2023-06-10T08:11:32;25.30;47.20
76263;DHT22;65080;50.908;6.916;2023-06-10T08:14:00;25.40;47.10
76263;DHT22;65080;50.908;6.916;2023-06-10T08:16:30;25.40;46.80
76263;DHT22;65080;50.908;6.916;2023-06-10T08:18:58;25.50;46.50
76263;DHT22;65080;50.908;6.916;2023-06-10T08:21:26;25.60;46.50
76263;DHT22;65080;50.908;6.916;2023-06-10T08:23:55;25.60;46.20
76263;DHT22;65080;50.908;6.916;2023-06-10T08:26:24;25.60;46.00
76263;DHT22;65080;50.908;6.916;2023-06-10T08:28:52;25.70;45.90
76263;DHT22;65080;50.908;6.916;2023-06-10T08:31:21;25.60;45.70
76263;DHT22;65080;50.908;6.916;2023-06-10T08:33:51;25.80;45.90
76263;DHT22;65080;50.908;6.916;2023-06-10T08:36:19;25.80;45.80
76263;DHT22;65080;50.908;6.916;2023-06-10T08:38:47;25.90;45.60
76263;DHT22;65080;50.908;6.916;2023-06-10T08:41:17;25.90;45.40
76263;DHT22;65080;50.908;6.916;2023-06-10T08:43:52;26.00;45.60
76263;DHT22;65080;50.908;6.916;2023-06-10T08:46:23;26.10;46.00
76263;DHT22;65080;50.908;6.916;2023-06-10T08:48:55;26.10;45.50
76263;DHT22;65080;50.908;6.916;2023-06-10T08:51:24;26.20;45.00
76263;DHT22;65080;50.908;6.916;2023-06-10T08:54:01;26.30;44.90
76263;DHT22;65080;50.908;6.916;2023-06-10T08:56:29;26.40;44.40
76263;DHT22;65080;50.908;6.916;2023-06-10T08:58:59;26.50;44.30
76263;DHT22;65080;50.908;6.916;2023-06-10T09:01:28;26.50;44.00
76263;DHT22;65080;50.908;6.916;2023-06-10T09:03:58;26.60;44.10
76263;DHT22;65080;50.908;6.916;2023-06-10T09:06:27;26.60;44.20
76263;DHT22;65080;50.908;6.916;2023-06-10T09:08:57;26.70;44.00
76263;DHT22;65080;50.908;6.916;2023-06-10T09:11:29;26.80;43.80
76263;DHT22;65080;50.908;6.916;2023-06-10T09:13:57;26.80;43.90
76263;DHT22;65080;50.908;6.916;2023-06-10T09:16:25;26.90;44.30
76263;DHT22;65080;50.908;6.916;2023-06-10T09:18:54;26.90;44.20
76263;DHT22;65080;50.908;6.916;2023-06-10T09:21:24;27.00;43.80
76263;DHT22;65080;50.908;6.916;2023-06-10T09:23:53;27.10;43.70
76263;DHT22;65080;50.908;6.916;2023-06-10T09:26:28;27.20;43.80
76263;DHT22;65080;50.908;6.916;2023-06-10T09:29:02;27.20;43.70
76263;DHT22;65080;50.908;6.916;2023-06-10T09:31:32;27.30;44.00
76263;DHT22;65080;50.908;6.916;2023-06-10T09:34:07;27.30;44.00
76263;DHT22;65080;50.908;6.916;2023-06-10T09:36:38;27.30;43.80
76263;DHT22;65080;50.908;6.916;2023-06-10T09:39:14;27.40;43.70
76263;DHT22;65080;50.908;6.916;2023-06-10T09:41:44;27.40;43.40
76263;DHT22;65080;50.908;6.916;2023-06-10T09:44:16;27.50;43.20
76263;DHT22;65080;50.908;6.916;2023-06-10T09:46:45;27.60;43.00
76263;DHT22;65080;50.908;6.916;2023-06-10T09:49:15;27.70;43.00
76263;DHT22;65080;50.908;6.916;2023-06-10T09:51:52;27.70;42.80
76263;DHT22;65080;50.908;6.916;2023-06-10T09:54:21;27.80;42.30
76263;DHT22;65080;50.908;6.916;2023-06-10T09:56:51;27.90;42.30
76263;DHT22;65080;50.908;6.916;2023-06-10T09:59:28;28.00;42.20
76263;DHT22;65080;50.908;6.916;2023-06-10T10:01:58;28.10;42.60
76263;DHT22;65080;50.908;6.916;2023-06-10T10:04:27;28.10;42.60
76263;DHT22;65080;50.908;6.916;2023-06-10T10:06:57;28.10;42.20
76263;DHT22;65080;50.908;6.916;2023-06-10T10:09:26;28.20;41.90
76263;DHT22;65080;50.908;6.916;2023-06-10T10:11:55;28.30;41.60
76263;DHT22;65080;50.908;6.916;2023-06-10T10:14:24;28.30;41.40
76263;DHT22;65080;50.908;6.916;2023-06-10T10:16:54;28.40;41.30
76263;DHT22;65080;50.908;6.916;2023-06-10T10:19:27;28.50;41.30
76263;DHT22;65080;50.908;6.916;2023-06-10T10:22:01;28.60;40.60
76263;DHT22;65080;50.908;6.916;2023-06-10T10:24:33;28.60;40.20
76263;DHT22;65080;50.908;6.916;2023-06-10T10:27:18;28.70;40.20
76263;DHT22;65080;50.908;6.916;2023-06-10T10:29:48;28.80;40.20
76263;DHT22;65080;50.908;6.916;2023-06-10T10:32:18;28.80;40.10
76263;DHT22;65080;50.908;6.916;2023-06-10T10:34:50;28.90;39.70
76263;DHT22;65080;50.908;6.916;2023-06-10T10:37:23;28.90;39.10
76263;DHT22;65080;50.908;6.916;2023-06-10T10:39:51;28.90;39.10
76263;DHT22;65080;50.908;6.916;2023-06-10T10:42:20;29.00;39.30
76263;DHT22;65080;50.908;6.916;2023-06-10T10:44:49;29.00;39.30
76263;DHT22;65080;50.908;6.916;2023-06-10T10:47:21;29.10;39.10
76263;DHT22;65080;50.908;6.916;2023-06-10T10:49:52;29.20;39.50
76263;DHT22;65080;50.908;6.916;2023-06-10T10:52:22;29.30;38.50
76263;DHT22;65080;50.908;6.916;2023-06-10T10:54:53;29.40;38.40
76263;DHT22;65080;50.908;6.916;2023-06-10T10:57:22;29.60;38.10
76263;DHT22;65080;50.908;6.916;2023-06-10T10:59:53;29.70;37.20
76263;DHT22;65080;50.908;6.916;2023-06-10T11:02:35;29.80;36.80
76263;DHT22;65080;50.908;6.916;2023-06-10T11:05:06;29.90;36.40
76263;DHT22;65080;50.908;6.916;2023-06-10T11:07:37;29.90;36.70
76263;DHT22;65080;50.908;6.916;2023-06-10T11:10:07;30.00;36.30
76263;DHT22;65080;50.908;6.916;2023-06-10T11:12:51;30.00;36.00
76263;DHT22;65080;50.908;6.916;2023-06-10T11:15:23;30.20;35.90
76263;DHT22;65080;50.908;6.916;2023-06-10T11:18:08;30.20;35.70
76263;DHT22;65080;50.908;6.916;2023-06-10T11:20:52;30.30;34.70
76263;DHT22;65080;50.908;6.916;2023-06-10T11:23:39;30.30;34.30
76263;DHT22;65080;50.908;6.916;2023-06-10T11:26:12;30.40;34.20
76263;DHT22;65080;50.908;6.916;2023-06-10T11:28:41;30.40;34.40
76263;DHT22;65080;50.908;6.916;2023-06-10T11:31:18;30.50;34.20
76263;DHT22;65080;50.908;6.916;2023-06-10T11:33:49;30.60;33.60
76263;DHT22;65080;50.908;6.916;2023-06-10T11:36:20;30.70;33.20
76263;DHT22;65080;50.908;6.916;2023-06-10T11:38:50;30.80;32.90
76263;DHT22;65080;50.908;6.916;2023-06-10T11:41:21;30.90;32.50
76263;DHT22;65080;50.908;6.916;2023-06-10T11:43:49;31.00;32.20
76263;DHT22;65080;50.908;6.916;2023-06-10T11:46:17;31.00;32.00
76263;DHT22;65080;50.908;6.916;2023-06-10T11:48:49;31.10;31.80
76263;DHT22;65080;50.908;6.916;2023-06-10T11:51:17;31.10;31.60
76263;DHT22;65080;50.908;6.916;2023-06-10T11:53:46;31.20;31.70
76263;DHT22;65080;50.908;6.916;2023-06-10T11:56:21;31.20;31.60
76263;DHT22;65080;50.908;6.916;2023-06-10T11:58:53;31.30;31.60
76263;DHT22;65080;50.908;6.916;2023-06-10T12:01:23;31.30;31.40
76263;DHT22;65080;50.908;6.916;2023-06-10T12:04:00;31.30;31.00
76263;DHT22;65080;50.908;6.916;2023-06-10T12:06:38;31.40;30.70
76263;DHT22;65080;50.908;6.916;2023-06-10T12:09:07;31.50;30.20
76263;DHT22;65080;50.908;6.916;2023-06-10T12:11:53;31.60;30.40
76263;DHT22;65080;50.908;6.916;2023-06-10T12:14:50;31.70;30.20
76263;DHT22;65080;50.908;6.916;2023-06-10T12:17:21;31.70;29.60
76263;DHT22;65080;50.908;6.916;2023-06-10T12:19:50;31.70;29.90
76263;DHT22;65080;50.908;6.916;2023-06-10T12:22:19;31.80;29.70
76263;DHT22;65080;50.908;6.916;2023-06-10T12:24:58;31.70;29.80
76263;DHT22;65080;50.908;6.916;2023-06-10T12:27:29;31.70;29.60
76263;DHT22;65080;50.908;6.916;2023-06-10T12:29:58;31.60;29.90
76263;DHT22;65080;50.908;6.916;2023-06-10T12:32:38;31.70;29.90
76263;DHT22;65080;50.908;6.916;2023-06-10T12:35:08;31.70;29.50
76263;DHT22;65080;50.908;6.916;2023-06-10T12:37:37;31.70;29.70
76263;DHT22;65080;50.908;6.916;2023-06-10T12:40:10;31.70;29.40
76263;DHT22;65080;50.908;6.916;2023-06-10T12:42:40;31.70;29.10
76263;DHT22;65080;50.908;6.916;2023-06-10T12:45:09;31.80;29.50
76263;DHT22;65080;50.908;6.916;2023-06-10T12:47:39;31.80;29.20
76263;DHT22;65080;50.908;6.916;2023-06-10T12:50:09;32.00;29.20
76263;DHT22;65080;50.908;6.916;2023-06-10T12:52:39;32.20;29.00
76263;DHT22;65080;50.908;6.916;2023-06-10T12:55:09;32.40;28.50
76263;DHT22;65080;50.908;6.916;2023-06-10T12:57:50;32.70;28.20
76263;DHT22;65080;50.908;6.916;2023-06-10T13:00:19;33.00;27.00
76263;DHT22;65080;50.908;6.916;2023-06-10T13:02:48;33.30;27.30
76263;DHT22;65080;50.908;6.916;2023-06-10T13:05:17;33.60;27.00
76263;DHT22;65080;50.908;6.916;2023-06-10T13:07:46;33.80;26.70
76263;DHT22;65080;50.908;6.916;2023-06-10T13:10:15;34.10;26.40
76263;DHT22;65080;50.908;6.916;2023-06-10T13:12:44;34.40;26.20
76263;DHT22;65080;50.908;6.916;2023-06-10T13:15:17;34.60;26.00
76263;DHT22;65080;50.908;6.916;2023-06-10T13:17:45;34.80;25.90
76263;DHT22;65080;50.908;6.916;2023-06-10T13:20:17;35.00;25.70
76263;DHT22;65080;50.908;6.916;2023-06-10T13:22:45;35.20;25.50
76263;DHT22;65080;50.908;6.916;2023-06-10T13:25:14;35.40;25.30
76263;DHT22;65080;50.908;6.916;2023-06-10T13:27:43;35.70;25.20
76263;DHT22;65080;50.908;6.916;2023-06-10T13:30:12;35.90;24.80
76263;DHT22;65080;50.908;6.916;2023-06-10T13:32:41;36.10;24.70
76263;DHT22;65080;50.908;6.916;2023-06-10T13:35:10;36.30;24.60
76263;DHT22;65080;50.908;6.916;2023-06-10T13:37:38;36.50;24.50
76263;DHT22;65080;50.908;6.916;2023-06-10T13:40:07;36.80;24.10
76263;DHT22;65080;50.908;6.916;2023-06-10T13:42:37;36.80;23.70
76263;DHT22;65080;50.908;6.916;2023-06-10T13:45:06;36.70;23.70
76263;DHT22;65080;50.908;6.916;2023-06-10T13:47:37;36.70;23.60
76263;DHT22;65080;50.908;6.916;2023-06-10T13:50:08;36.60;23.50
76263;DHT22;65080;50.908;6.916;2023-06-10T13:52:36;36.70;23.50
76263;DHT22;65080;50.908;6.916;2023-06-10T13:55:05;36.80;24.00
76263;DHT22;65080;50.908;6.916;2023-06-10T13:57:34;36.90;24.00
76263;DHT22;65080;50.908;6.916;2023-06-10T14:00:03;37.10;24.10
76263;DHT22;65080;50.908;6.916;2023-06-10T14:02:31;37.10;23.90
76263;DHT22;65080;50.908;6.916;2023-06-10T14:05:00;37.00;23.90
76263;DHT22;65080;50.908;6.916;2023-06-10T14:07:29;37.00;24.20
76263;DHT22;65080;50.908;6.916;2023-06-10T14:09:58;37.20;24.40
76263;DHT22;65080;50.908;6.916;2023-06-10T14:12:26;37.30;24.00
76263;DHT22;65080;50.908;6.916;2023-06-10T14:14:54;37.30;23.80
76263;DHT22;65080;50.908;6.916;2023-06-10T14:17:23;37.50;23.80
76263;DHT22;65080;50.908;6.916;2023-06-10T14:19:51;37.60;23.30
76263;DHT22;65080;50.908;6.916;2023-06-10T14:22:19;37.60;23.00
76263;DHT22;65080;50.908;6.916;2023-06-10T14:24:49;37.50;22.90
76263;DHT22;65080;50.908;6.916;2023-06-10T14:27:17;37.50;22.90
76263;DHT22;65080;50.908;6.916;2023-06-10T14:29:45;37.60;23.10
76263;DHT22;65080;50.908;6.916;2023-06-10T14:32:13;37.70;23.00
76263;DHT22;65080;50.908;6.916;2023-06-10T14:34:42;37.70;22.80
76263;DHT22;65080;50.908;6.916;2023-06-10T14:37:11;37.60;22.80
76263;DHT22;65080;50.908;6.916;2023-06-10T14:39:39;37.60;22.70
76263;DHT22;65080;50.908;6.916;2023-06-10T14:42:09;37.50;22.70
76263;DHT22;65080;50.908;6.916;2023-06-10T14:44:37;37.60;22.80
76263;DHT22;65080;50.908;6.916;2023-06-10T14:47:06;37.80;22.90
76263;DHT22;65080;50.908;6.916;2023-06-10T14:49:34;38.00;22.90
76263;DHT22;65080;50.908;6.916;2023-06-10T14:52:02;38.10;23.00
76263;DHT22;65080;50.908;6.916;2023-06-10T14:54:31;38.30;23.20
76263;DHT22;65080;50.908;6.916;2023-06-10T14:56:59;38.50;23.20
76263;DHT22;65080;50.908;6.916;2023-06-10T14:59:28;38.50;23.00
76263;DHT22;65080;50.908;6.916;2023-06-10T15:01:57;38.40;23.00
76263;DHT22;65080;50.908;6.916;2023-06-10T15:04:27;38.30;22.90
76263;DHT22;65080;50.908;6.916;2023-06-10T15:06:56;38.20;22.80
76263;DHT22;65080;50.908;6.916;2023-06-10T15:09:24;38.20;22.90
76263;DHT22;65080;50.908;6.916;2023-06-10T15:11:53;38.20;22.90
76263;DHT22;65080;50.908;6.916;2023-06-10T15:14:22;38.10;22.60
76263;DHT22;65080;50.908;6.916;2023-06-10T15:16:51;38.10;22.40
76263;DHT22;65080;50.908;6.916;2023-06-10T15:19:19;38.10;22.50
76263;DHT22;65080;50.908;6.916;2023-06-10T15:21:48;38.20;22.70
76263;DHT22;65080;50.908;6.916;2023-06-10T15:24:16;38.40;22.30
76263;DHT22;65080;50.908;6.916;2023-06-10T15:26:45;38.60;21.70
76263;DHT22;65080;50.908;6.916;2023-06-10T15:29:13;38.60;21.40
76263;DHT22;65080;50.908;6.916;2023-06-10T15:31:41;38.70;21.50
76263;DHT22;65080;50.908;6.916;2023-06-10T15:34:11;38.70;21.70
76263;DHT22;65080;50.908;6.916;2023-06-10T15:36:39;38.80;21.80
76263;DHT22;65080;50.908;6.916;2023-06-10T15:39:07;38.90;21.60
76263;DHT22;65080;50.908;6.916;2023-06-10T15:41:36;38.90;21.60
76263;DHT22;65080;50.908;6.916;2023-06-10T15:44:04;39.00;21.70
76263;DHT22;65080;50.908;6.916;2023-06-10T15:46:32;39.00;21.90
76263;DHT22;65080;50.908;6.916;2023-06-10T15:49:02;39.00;22.10